createdAt,value
2022-12-19T00:01:37.883Z,40.67
2022-12-19T00:04:09.177Z,42.45
2022-12-19T00:06:37.961Z,45.77
2022-12-19T00:09:09.995Z,41.63
2022-12-19T00:11:36.692Z,37.63
2022-12-19T00:14:03.271Z,39.72
2022-12-19T00:16:30.481Z,42.80
2022-12-19T00:18:59.706Z,43.07
2022-12-19T00:21:35.029Z,43.83
2022-12-19T00:24:03.547Z,47.33
2022-12-19T00:26:35.698Z,43.35
2022-12-19T00:29:13.858Z,40.97
2022-12-19T00:31:41.071Z,41.27
2022-12-19T00:34:08.854Z,40.33
2022-12-19T00:36:35.742Z,40.28
2022-12-19T00:39:05.684Z,44.58
2022-12-19T00:41:37.502Z,43.50
2022-12-19T00:44:12.058Z,46.37
2022-12-19T00:46:38.764Z,44.40
2022-12-19T00:49:06.058Z,39.90
2022-12-19T00:51:35.118Z,30.25
2022-12-19T00:54:03.069Z,37.83
2022-12-19T00:56:34.480Z,39.57
2022-12-19T00:59:05.002Z,40.67
2022-12-19T01:01:34.955Z,33.33
2022-12-19T01:06:49.843Z,31.85
2022-12-19T01:09:16.862Z,37.30
2022-12-19T01:12:02.291Z,33.50
2022-12-19T01:14:28.855Z,34.30
2022-12-19T01:16:55.459Z,33.47
2022-12-19T01:19:22.027Z,37.05
2022-12-19T01:21:48.710Z,34.17
2022-12-19T01:24:19.028Z,34.58
2022-12-19T01:26:46.132Z,33.22
2022-12-19T01:29:12.884Z,33.75
2022-12-19T01:31:39.690Z,37.53
2022-12-19T01:34:06.393Z,42.80
2022-12-19T01:36:34.597Z,33.92
2022-12-19T01:39:02.882Z,40.60
2022-12-19T01:41:29.507Z,33.22
2022-12-19T01:44:02.024Z,32.13
2022-12-19T01:46:47.774Z,39.90
2022-12-19T01:49:36.035Z,39.63
2022-12-19T01:52:07.210Z,45.67
2022-12-19T01:54:40.549Z,46.45
2022-12-19T01:57:13.597Z,49.85
2022-12-19T01:59:51.530Z,45.23
2022-12-19T02:02:25.320Z,62.42
2022-12-19T02:04:51.927Z,55.85
2022-12-19T02:07:22.047Z,61.28
2022-12-19T02:09:56.799Z,52.03
2022-12-19T02:12:31.064Z,59.90
2022-12-19T02:15:02.510Z,53.60
2022-12-19T02:17:59.845Z,53.92
2022-12-19T02:20:44.600Z,61.13
2022-12-19T02:23:47.983Z,43.85
2022-12-19T02:26:43.990Z,50.70
2022-12-19T02:29:47.838Z,42.90
2022-12-19T02:32:36.233Z,43.97
2022-12-19T02:35:18.250Z,38.08
2022-12-19T02:38:21.172Z,35.70
2022-12-19T02:41:04.231Z,47.93
2022-12-19T02:43:33.755Z,41.20
2022-12-19T02:46:02.735Z,45.13
2022-12-19T02:48:30.027Z,58.05
2022-12-19T02:50:56.660Z,36.75
2022-12-19T02:53:23.946Z,55.13
2022-12-19T02:55:59.707Z,54.95
2022-12-19T02:58:31.771Z,63.33
2022-12-19T03:01:35.084Z,46.35
2022-12-19T03:04:39.054Z,49.65
2022-12-19T03:07:20.566Z,52.80
2022-12-19T03:10:01.011Z,40.83
2022-12-19T03:12:45.549Z,41.92
2022-12-19T03:15:13.181Z,43.63
2022-12-19T03:17:40.136Z,48.15
2022-12-19T03:20:35.762Z,52.03
2022-12-19T03:23:02.473Z,46.35
2022-12-19T03:25:30.478Z,32.83
2022-12-19T03:28:01.590Z,36.17
2022-12-19T03:30:31.295Z,48.78
2022-12-19T03:32:58.239Z,37.37
2022-12-19T03:35:28.971Z,45.45
2022-12-19T03:38:01.906Z,45.80
2022-12-19T03:40:30.502Z,46.05
2022-12-19T03:43:11.673Z,38.22
2022-12-19T03:45:47.613Z,38.27
2022-12-19T03:48:32.984Z,47.30
2022-12-19T03:51:18.445Z,41.83
2022-12-19T03:53:55.958Z,30.92
2022-12-19T03:56:45.163Z,28.55
2022-12-19T03:59:31.869Z,27.73
2022-12-19T04:01:59.240Z,25.27
2022-12-19T04:04:28.069Z,44.53
2022-12-19T04:06:56.246Z,32.92
2022-12-19T04:09:24.124Z,20.58
2022-12-19T04:11:55.888Z,29.37
2022-12-19T04:14:29.892Z,29.35
2022-12-19T04:17:30.449Z,21.38
2022-12-19T04:20:10.710Z,25.75
2022-12-19T04:23:01.330Z,23.52
2022-12-19T04:25:33.789Z,22.63
2022-12-19T04:28:25.898Z,23.30
2022-12-19T04:30:53.920Z,16.80
2022-12-19T04:33:20.770Z,21.73
2022-12-19T04:35:47.407Z,26.55
2022-12-19T04:38:14.070Z,27.03
2022-12-19T04:40:41.753Z,14.52
2022-12-19T04:43:09.181Z,23.67
2022-12-19T04:45:36.138Z,25.85
2022-12-19T04:48:03.410Z,21.50
2022-12-19T04:50:29.971Z,24.40
2022-12-19T04:52:57.281Z,28.27
2022-12-19T04:55:23.999Z,29.90
2022-12-19T04:57:50.649Z,18.27
2022-12-19T05:00:17.380Z,32.10
2022-12-19T05:02:44.596Z,40.03
2022-12-19T05:05:11.572Z,27.95
2022-12-19T05:07:38.171Z,27.48
2022-12-19T05:10:05.529Z,26.02
2022-12-19T05:12:32.200Z,19.73
2022-12-19T05:14:58.856Z,22.50
2022-12-19T05:17:25.528Z,18.60
2022-12-19T05:19:52.115Z,21.00
2022-12-19T05:22:18.856Z,26.23
2022-12-19T05:24:45.485Z,18.77
2022-12-19T05:27:12.215Z,20.33
2022-12-19T05:29:38.784Z,12.75
2022-12-19T05:32:05.540Z,24.30
2022-12-19T05:34:33.227Z,14.55
2022-12-19T05:37:00.126Z,18.00
2022-12-19T05:39:26.984Z,18.83
2022-12-19T05:41:54.131Z,22.10
2022-12-19T05:44:20.874Z,21.02
2022-12-19T05:46:47.516Z,17.38
2022-12-19T05:49:14.143Z,17.75
2022-12-19T05:51:41.436Z,20.20
2022-12-19T05:54:08.007Z,15.43
2022-12-19T05:56:34.640Z,18.67
2022-12-19T05:59:01.243Z,19.25
2022-12-19T06:01:28.298Z,22.52
2022-12-19T06:03:55.435Z,18.93
2022-12-19T06:06:26.518Z,14.80
2022-12-19T06:08:54.866Z,26.13
2022-12-19T06:11:22.145Z,26.35
2022-12-19T06:13:49.002Z,15.18
2022-12-19T06:16:18.032Z,20.63
2022-12-19T06:18:46.060Z,13.82
2022-12-19T06:21:15.688Z,15.88
2022-12-19T06:23:43.193Z,18.83
2022-12-19T06:26:17.149Z,16.60
2022-12-19T06:28:46.433Z,17.50
2022-12-19T06:31:13.611Z,15.90
2022-12-19T06:33:40.671Z,19.48
2022-12-19T06:36:14.278Z,14.18
2022-12-19T06:38:40.902Z,17.23
2022-12-19T06:41:27.895Z,14.20
2022-12-19T06:43:58.087Z,16.42
2022-12-19T06:46:24.765Z,16.17
2022-12-19T06:48:52.699Z,15.40
2022-12-19T06:51:20.022Z,14.15
2022-12-19T06:53:46.638Z,16.60
2022-12-19T06:56:15.738Z,16.65
2022-12-19T06:58:42.531Z,13.43
2022-12-19T07:01:20.704Z,15.35
2022-12-19T07:03:49.010Z,13.07
2022-12-19T07:06:15.859Z,17.27
2022-12-19T07:08:42.598Z,17.52
2022-12-19T07:11:09.247Z,18.10
2022-12-19T07:13:35.840Z,13.70
2022-12-19T07:16:05.227Z,19.10
2022-12-19T07:18:35.863Z,14.17
2022-12-19T07:21:03.359Z,16.75
2022-12-19T07:23:30.184Z,13.82
2022-12-19T07:25:57.435Z,17.75
2022-12-19T07:28:24.310Z,17.17
2022-12-19T07:30:50.920Z,18.27
2022-12-19T07:33:21.369Z,16.65
2022-12-19T07:35:48.625Z,18.42
2022-12-19T07:38:15.354Z,15.65
2022-12-19T07:40:41.917Z,12.85
2022-12-19T07:43:08.549Z,16.57
2022-12-19T07:45:38.067Z,16.58
2022-12-19T07:48:06.108Z,16.27
2022-12-19T07:50:33.186Z,15.63
2022-12-19T07:52:59.890Z,16.08
2022-12-19T07:55:27.162Z,11.67
2022-12-19T07:57:55.176Z,15.38
2022-12-19T08:00:22.100Z,16.42
2022-12-19T08:02:48.830Z,13.23
2022-12-19T08:05:15.652Z,15.57
2022-12-19T08:07:42.293Z,14.83
2022-12-19T08:10:11.291Z,13.40
2022-12-19T08:12:38.193Z,14.10
2022-12-19T08:15:05.813Z,14.90
2022-12-19T08:17:34.453Z,13.80
2022-12-19T08:20:01.148Z,14.43
2022-12-19T08:22:29.880Z,12.77
2022-12-19T08:24:57.464Z,18.42
2022-12-19T08:27:24.088Z,13.48
2022-12-19T08:29:51.052Z,17.38
2022-12-19T08:32:21.153Z,12.10
2022-12-19T08:34:48.789Z,15.35
2022-12-19T08:37:15.374Z,13.32
2022-12-19T08:39:42.008Z,15.57
2022-12-19T08:42:08.655Z,17.25
2022-12-19T08:44:35.321Z,13.37
2022-12-19T08:47:02.594Z,15.25
2022-12-19T08:49:29.303Z,15.18
2022-12-19T08:51:56.016Z,14.30
2022-12-19T08:54:22.931Z,12.98
2022-12-19T08:56:49.511Z,13.67
2022-12-19T08:59:25.002Z,13.27
2022-12-19T09:01:59.102Z,17.92
2022-12-19T09:06:02.141Z,14.05
2022-12-19T09:07:15.305Z,17.88
2022-12-19T09:09:43.108Z,11.60
2022-12-19T09:12:09.792Z,13.52
2022-12-19T09:14:36.801Z,14.70
2022-12-19T09:17:04.552Z,12.63
2022-12-19T09:19:31.537Z,9.85
2022-12-19T09:21:58.197Z,11.23
2022-12-19T09:24:24.863Z,12.05
2022-12-19T09:26:51.540Z,11.18
2022-12-19T09:29:20.720Z,14.52
2022-12-19T09:31:56.360Z,14.30
2022-12-19T09:34:37.102Z,12.00
2022-12-19T09:37:06.590Z,13.25
2022-12-19T09:39:34.412Z,13.50
2022-12-19T09:42:11.812Z,14.45
2022-12-19T09:44:53.525Z,13.85
2022-12-19T09:47:28.198Z,12.67
2022-12-19T09:49:54.900Z,13.88
2022-12-19T09:52:35.029Z,12.93
2022-12-19T09:55:17.307Z,10.55
2022-12-19T09:57:49.983Z,10.73
2022-12-19T10:00:20.167Z,16.43
2022-12-19T10:02:52.671Z,14.70
2022-12-19T10:06:59.842Z,12.30
2022-12-19T10:08:54.985Z,11.38
2022-12-19T10:12:38.272Z,15.05
2022-12-19T10:14:53.805Z,10.97
2022-12-19T10:17:33.401Z,9.95
2022-12-19T10:20:29.586Z,13.50
2022-12-19T10:23:39.898Z,7.60
2022-12-19T10:26:20.846Z,10.48
2022-12-19T10:29:14.766Z,14.60
2022-12-19T10:31:59.336Z,11.15
2022-12-19T10:34:43.585Z,8.57
2022-12-19T10:37:32.746Z,8.93
2022-12-19T10:40:10.343Z,11.13
2022-12-19T10:43:03.060Z,13.47
2022-12-19T10:45:50.099Z,12.02
2022-12-19T10:48:22.572Z,11.05
2022-12-19T10:50:57.565Z,8.77
2022-12-19T10:53:29.420Z,9.95
2022-12-19T10:56:03.671Z,11.27
2022-12-19T10:58:36.538Z,8.35
2022-12-19T11:01:29.629Z,8.23
2022-12-19T11:04:33.254Z,11.07
2022-12-19T11:07:03.060Z,10.43
2022-12-19T11:09:35.787Z,10.67
2022-12-19T11:15:24.814Z,10.10
2022-12-19T11:19:39.694Z,9.10
2022-12-19T11:25:37.416Z,8.50
2022-12-19T11:29:54.648Z,11.50
2022-12-19T11:29:54.950Z,9.73
2022-12-19T11:30:36.678Z,6.23
2022-12-19T11:33:19.035Z,9.30
2022-12-19T11:35:51.713Z,8.10
2022-12-19T11:38:55.534Z,10.63
2022-12-19T11:41:45.487Z,7.75
2022-12-19T11:44:38.852Z,11.30
2022-12-19T11:47:48.279Z,8.80
2022-12-19T11:50:22.830Z,11.57
2022-12-19T11:53:04.481Z,12.53
2022-12-19T11:56:01.079Z,13.93
2022-12-19T11:58:29.792Z,13.25
2022-12-19T12:01:23.010Z,9.38
2022-12-19T12:04:08.664Z,8.80
2022-12-19T12:06:46.190Z,7.47
2022-12-19T12:12:21.610Z,7.72
2022-12-19T12:19:21.819Z,6.53
2022-12-19T12:31:23.447Z,7.73
2022-12-19T12:31:26.957Z,7.68
2022-12-19T12:31:31.630Z,7.32
2022-12-19T12:31:45.376Z,8.73
2022-12-19T12:31:52.923Z,8.23
2022-12-19T12:32:04.347Z,6.55
2022-12-19T12:35:50.922Z,9.45
2022-12-19T12:39:39.983Z,6.68
2022-12-19T12:42:17.097Z,7.30
2022-12-19T12:44:46.430Z,8.63
2022-12-19T12:47:21.565Z,7.50
2022-12-19T12:49:58.709Z,10.97
2022-12-19T12:53:00.372Z,7.47
2022-12-19T12:55:34.184Z,10.07
2022-12-19T12:58:00.836Z,6.10
2022-12-19T13:00:34.689Z,8.93
2022-12-19T13:03:12.515Z,6.57
2022-12-19T13:06:20.832Z,7.07
2022-12-19T13:08:49.110Z,7.00
2022-12-19T13:11:55.819Z,7.32
2022-12-19T13:14:34.383Z,8.23
2022-12-19T13:17:11.909Z,7.63
2022-12-19T13:19:52.416Z,5.97
2022-12-19T13:22:31.763Z,7.78
2022-12-19T13:25:00.312Z,10.30
2022-12-19T13:27:33.874Z,7.47
2022-12-19T13:30:00.509Z,7.43
2022-12-19T13:32:41.160Z,6.55
2022-12-19T13:36:26.318Z,9.02
2022-12-19T13:39:56.784Z,7.85
2022-12-19T13:41:48.661Z,5.75
2022-12-19T13:44:21.174Z,6.13
2022-12-19T13:46:48.381Z,7.03
2022-12-19T13:49:17.930Z,11.57
2022-12-19T13:51:47.353Z,6.75
2022-12-19T13:54:21.168Z,6.65
2022-12-19T13:56:47.806Z,6.50
2022-12-19T13:59:14.834Z,5.53
2022-12-19T14:01:42.036Z,9.35
2022-12-19T14:04:29.188Z,6.88
2022-12-19T14:07:37.292Z,7.18
2022-12-19T14:11:32.287Z,6.30
2022-12-19T14:13:29.444Z,8.35
2022-12-19T14:16:04.098Z,9.18
2022-12-19T14:18:42.688Z,6.35
2022-12-19T14:22:05.118Z,7.60
2022-12-19T14:24:17.399Z,6.77
2022-12-19T14:28:18.860Z,8.02
2022-12-19T14:30:27.237Z,6.95
2022-12-19T14:33:50.007Z,6.47
2022-12-19T14:36:10.853Z,7.07
2022-12-19T14:39:27.356Z,5.73
2022-12-19T14:41:47.097Z,8.20
2022-12-19T14:52:34.730Z,5.82
2022-12-19T14:54:01.420Z,7.90
2022-12-19T14:54:13.005Z,7.78
2022-12-19T14:54:21.708Z,7.57
2022-12-19T14:56:04.723Z,6.88
2022-12-19T14:58:54.408Z,6.45
2022-12-19T15:01:23.990Z,6.75
2022-12-19T15:04:52.947Z,5.88
2022-12-19T15:07:06.729Z,7.80
2022-12-19T15:11:03.348Z,7.20
2022-12-19T15:14:54.587Z,6.05
2022-12-19T15:15:58.919Z,5.55
2022-12-19T15:18:37.995Z,7.35
2022-12-19T15:21:08.266Z,5.67
2022-12-19T15:23:35.552Z,7.38
2022-12-19T15:26:06.877Z,6.45
2022-12-19T15:28:49.999Z,5.97
2022-12-19T15:31:35.352Z,5.40
2022-12-19T15:34:38.030Z,6.87
2022-12-19T15:37:10.250Z,7.68
2022-12-19T15:39:37.352Z,6.28
2022-12-19T15:42:04.817Z,6.75
2022-12-19T15:44:37.603Z,8.00
2022-12-19T15:47:07.240Z,5.97
2022-12-19T15:49:35.065Z,6.15
2022-12-19T15:52:02.685Z,7.30
2022-12-19T15:57:46.497Z,5.03
2022-12-19T16:00:25.700Z,4.80
2022-12-19T16:03:22.483Z,9.75
2022-12-19T16:05:41.299Z,7.95
2022-12-19T16:08:12.781Z,12.55
2022-12-19T16:10:40.888Z,4.85
2022-12-19T16:13:19.933Z,5.47
2022-12-19T16:15:46.992Z,7.25
2022-12-19T16:18:14.477Z,8.07
2022-12-19T16:20:42.463Z,7.47
2022-12-19T16:23:10.986Z,7.80
2022-12-19T16:25:42.125Z,5.00
2022-12-19T16:28:38.413Z,6.03
2022-12-19T16:31:14.987Z,5.15
2022-12-19T16:33:41.961Z,4.93
2022-12-19T16:36:09.532Z,4.47
2022-12-19T16:38:36.732Z,6.23
2022-12-19T16:41:03.911Z,5.80
2022-12-19T16:43:35.045Z,5.70
2022-12-19T16:46:05.747Z,9.07
2022-12-19T16:48:35.436Z,6.50
2022-12-19T16:51:02.813Z,11.03
2022-12-19T16:53:29.742Z,6.50
2022-12-19T16:55:57.148Z,7.75
2022-12-19T16:58:26.478Z,6.22
2022-12-19T17:00:55.190Z,8.05
2022-12-19T17:03:31.109Z,5.70
2022-12-19T17:05:57.701Z,6.35
2022-12-19T17:08:24.617Z,8.02
2022-12-19T17:10:53.104Z,6.50
2022-12-19T17:13:21.008Z,7.07
2022-12-19T17:15:56.088Z,7.43
2022-12-19T17:18:35.785Z,6.65
2022-12-19T17:21:02.823Z,6.47
2022-12-19T17:23:32.626Z,6.32
2022-12-19T17:26:00.822Z,6.18
2022-12-19T17:28:28.856Z,7.23
2022-12-19T17:30:59.223Z,6.07
2022-12-19T17:33:43.838Z,7.28
2022-12-19T17:36:12.946Z,7.10
2022-12-19T17:38:39.543Z,6.82
2022-12-19T17:41:06.362Z,10.23
2022-12-19T17:43:33.004Z,8.82
2022-12-19T17:45:59.818Z,8.10
2022-12-19T17:48:32.633Z,4.53
2022-12-19T17:51:00.050Z,7.85
2022-12-19T17:53:26.964Z,6.00
2022-12-19T17:55:53.598Z,6.70
2022-12-19T17:58:21.602Z,5.82
2022-12-19T18:00:49.721Z,10.13
2022-12-19T18:03:24.011Z,5.43
2022-12-19T18:05:53.257Z,5.67
2022-12-19T18:08:27.394Z,5.75
2022-12-19T18:10:56.608Z,8.27
2022-12-19T18:13:24.555Z,5.90
2022-12-19T18:15:52.939Z,5.70
2022-12-19T18:18:26.715Z,6.90
2022-12-19T18:20:54.003Z,6.50
2022-12-19T18:23:23.007Z,8.02
2022-12-19T18:25:51.746Z,5.60
2022-12-19T18:28:20.125Z,6.00
2022-12-19T18:30:47.387Z,7.00
2022-12-19T18:33:18.145Z,9.20
2022-12-19T18:35:49.851Z,10.05
2022-12-19T18:38:24.574Z,8.02
2022-12-19T18:40:52.078Z,9.38
2022-12-19T18:43:19.347Z,4.90
2022-12-19T18:45:48.455Z,7.50
2022-12-19T18:48:32.784Z,8.70
2022-12-19T18:51:00.555Z,10.48
2022-12-19T18:53:35.118Z,8.02
2022-12-19T18:56:03.930Z,4.73
2022-12-19T18:58:30.668Z,9.88
2022-12-19T19:00:59.690Z,7.32
2022-12-19T19:03:33.503Z,6.13
2022-12-19T19:06:00.836Z,6.88
2022-12-19T19:08:30.443Z,5.60
2022-12-19T19:10:57.358Z,6.07
2022-12-19T19:13:25.548Z,5.82
2022-12-19T19:15:59.355Z,5.15
2022-12-19T19:18:30.779Z,6.10
2022-12-19T19:21:01.283Z,5.20
2022-12-19T19:23:33.533Z,6.80
2022-12-19T19:26:00.279Z,9.02
2022-12-19T19:28:27.157Z,8.05
2022-12-19T19:30:54.543Z,7.75
2022-12-19T19:33:29.941Z,6.53
2022-12-19T19:36:00.490Z,5.28
2022-12-19T19:38:30.433Z,5.68
2022-12-19T19:40:58.658Z,6.43
2022-12-19T19:43:26.868Z,6.65
2022-12-19T19:45:53.471Z,5.00
2022-12-19T19:48:20.109Z,6.90
2022-12-19T19:50:48.060Z,6.03
2022-12-19T19:53:14.693Z,6.38
2022-12-19T19:55:41.278Z,6.55
2022-12-19T19:58:07.907Z,5.23
2022-12-19T20:00:34.610Z,13.27
2022-12-19T20:03:06.267Z,9.85
2022-12-19T20:05:35.898Z,6.43
2022-12-19T20:08:02.513Z,4.93
2022-12-19T20:10:29.104Z,7.53
2022-12-19T20:12:55.734Z,7.72
2022-12-19T20:15:22.408Z,6.70
2022-12-19T20:17:51.389Z,6.13
2022-12-19T20:20:18.133Z,7.40
2022-12-19T20:22:44.948Z,6.20
2022-12-19T20:25:11.585Z,7.43
2022-12-19T20:27:38.161Z,9.05
2022-12-19T20:30:05.370Z,5.93
2022-12-19T20:32:32.103Z,6.13
2022-12-19T20:34:58.817Z,7.93
2022-12-19T20:37:25.566Z,5.47
2022-12-19T20:39:52.799Z,6.82
2022-12-19T20:42:19.464Z,6.15
2022-12-19T20:44:46.114Z,6.65
2022-12-19T20:47:13.238Z,8.97
2022-12-19T20:49:39.866Z,7.13
2022-12-19T20:52:06.573Z,5.25
2022-12-19T20:54:33.159Z,5.50
2022-12-19T20:56:59.735Z,5.72
2022-12-19T20:59:26.413Z,5.43
2022-12-19T21:01:55.180Z,6.85
2022-12-19T21:04:22.201Z,6.05
2022-12-19T21:06:49.026Z,8.07
2022-12-19T21:09:15.621Z,8.35
2022-12-19T21:11:42.295Z,6.43
2022-12-19T21:14:11.009Z,6.40
2022-12-19T21:16:38.594Z,7.93
2022-12-19T21:19:05.370Z,6.00
2022-12-19T21:21:32.138Z,8.63
2022-12-19T21:24:00.644Z,6.87
2022-12-19T21:26:27.277Z,7.05
2022-12-19T21:28:54.777Z,6.78
2022-12-19T21:31:24.981Z,6.60
2022-12-19T21:33:55.217Z,6.40
2022-12-19T21:36:24.324Z,8.17
2022-12-19T21:38:55.133Z,7.22
2022-12-19T21:41:22.438Z,5.00
2022-12-19T21:43:53.348Z,6.25
2022-12-19T21:46:22.858Z,8.75
2022-12-19T21:48:51.535Z,6.73
2022-12-19T21:51:20.471Z,8.45
2022-12-19T21:53:47.313Z,7.32
2022-12-19T21:56:22.801Z,7.22
2022-12-19T21:58:57.933Z,5.63
2022-12-19T22:01:25.550Z,7.63
2022-12-19T22:03:52.566Z,7.30
2022-12-19T22:06:27.722Z,8.05
2022-12-19T22:08:55.829Z,6.78
2022-12-19T22:11:22.743Z,6.07
2022-12-19T22:13:50.069Z,7.03
2022-12-19T22:16:17.121Z,8.70
2022-12-19T22:18:44.445Z,8.52
2022-12-19T22:21:13.527Z,5.82
2022-12-19T22:23:41.004Z,7.03
2022-12-19T22:26:11.172Z,5.00
2022-12-19T22:28:39.814Z,6.15
2022-12-19T22:31:42.147Z,8.38
2022-12-19T22:34:17.179Z,6.78
2022-12-19T22:36:44.739Z,6.70
2022-12-19T22:39:14.090Z,4.80
2022-12-19T22:41:41.610Z,5.10
2022-12-19T22:44:09.391Z,5.30
2022-12-19T22:46:37.405Z,9.32
2022-12-19T22:49:07.196Z,4.72
2022-12-19T22:51:35.015Z,7.87
2022-12-19T22:54:02.105Z,6.07
2022-12-19T22:56:31.162Z,6.80
2022-12-19T22:59:00.834Z,8.95
2022-12-19T23:01:36.940Z,6.20
2022-12-19T23:04:05.435Z,5.57
2022-12-19T23:06:34.968Z,5.80
2022-12-19T23:09:01.723Z,6.20
2022-12-19T23:11:31.957Z,5.57
2022-12-19T23:14:00.795Z,5.28
2022-12-19T23:16:27.709Z,4.30
2022-12-19T23:18:54.590Z,7.38
2022-12-19T23:21:23.435Z,7.43
2022-12-19T23:23:53.132Z,5.13
2022-12-19T23:26:22.714Z,7.45
2022-12-19T23:28:58.303Z,5.17
2022-12-19T23:31:25.591Z,6.55
2022-12-19T23:33:52.462Z,6.00
2022-12-19T23:36:38.272Z,6.88
2022-12-19T23:39:06.526Z,5.97
2022-12-19T23:41:33.422Z,6.30
2022-12-19T23:43:59.990Z,6.63
2022-12-19T23:46:27.353Z,5.80
2022-12-19T23:48:54.271Z,7.07
2022-12-19T23:51:26.892Z,5.57
2022-12-19T23:53:55.179Z,6.40
2022-12-19T23:56:30.666Z,6.72
2022-12-19T23:58:57.932Z,7.13
